createdAt,value
2023-01-29T00:00:08.348Z,879.2
2023-01-29T00:05:17.599Z,884
2023-01-29T00:07:01.161Z,886.6
2023-01-29T00:08:44.399Z,889.1
2023-01-29T00:10:27.987Z,889.6
2023-01-29T00:12:11.307Z,886.4
2023-01-29T00:13:54.713Z,884.7
2023-01-29T00:15:38.012Z,885.5
2023-01-29T00:17:21.502Z,889.3
2023-01-29T00:20:47.994Z,895.7
2023-01-29T00:22:31.302Z,894
2023-01-29T00:24:14.645Z,894.3
2023-01-29T00:25:58.041Z,894.4
2023-01-29T00:27:41.422Z,893.7
2023-01-29T00:29:24.941Z,896
2023-01-29T00:31:08.237Z,899.3
2023-01-29T00:32:51.628Z,900
2023-01-29T00:36:18.167Z,897.9
2023-01-29T00:38:01.482Z,898.5
2023-01-29T00:39:44.908Z,896.6
2023-01-29T00:41:28.335Z,894.5
2023-01-29T00:43:11.692Z,897.3
2023-01-29T00:44:55.166Z,900.4
2023-01-29T00:46:38.480Z,901.8
2023-01-29T00:48:21.856Z,901.3
2023-01-29T00:50:05.320Z,900.7
2023-01-29T00:51:49.048Z,900.7
2023-01-29T00:53:32.373Z,900.7
2023-01-29T00:55:15.779Z,900.5
2023-01-29T00:56:59.152Z,900.3
2023-01-29T00:58:42.554Z,901.2
2023-01-29T01:00:26.108Z,901.1
2023-01-29T01:02:09.341Z,903.4
2023-01-29T01:03:52.763Z,900.5
2023-01-29T01:09:01.971Z,900
2023-01-29T01:10:45.431Z,900
2023-01-29T01:12:28.784Z,898.3
2023-01-29T01:14:12.161Z,897.2
2023-01-29T01:15:55.577Z,899.7
2023-01-29T01:17:38.965Z,900.6
2023-01-29T01:19:22.356Z,902.2
2023-01-29T01:21:05.748Z,901.2
2023-01-29T01:24:32.229Z,903
2023-01-29T01:26:15.617Z,906.1
2023-01-29T01:29:42.415Z,908.3
2023-01-29T01:31:25.811Z,910.8
2023-01-29T01:33:09.208Z,911.3
2023-01-29T01:34:52.606Z,911.3
2023-01-29T01:36:35.997Z,912.2
2023-01-29T01:40:02.471Z,912.5
2023-01-29T01:41:45.867Z,914.7
2023-01-29T01:43:29.272Z,918.1
2023-01-29T01:45:12.670Z,919
2023-01-29T01:46:56.053Z,921.1
2023-01-29T01:48:39.455Z,922.1
2023-01-29T01:50:22.858Z,925.5
2023-01-29T01:52:06.260Z,926.4
2023-01-29T01:53:50.026Z,927.7
2023-01-29T01:55:33.337Z,930
2023-01-29T01:57:16.741Z,933.4
2023-01-29T01:59:00.175Z,933.4
2023-01-29T02:00:43.512Z,932.8
2023-01-29T02:02:26.950Z,932.6
2023-01-29T02:04:10.403Z,932.8
2023-01-29T02:05:53.718Z,932.8
2023-01-29T02:09:20.191Z,932.6
2023-01-29T02:11:03.598Z,932.5
2023-01-29T02:12:46.985Z,932.4
2023-01-29T02:14:30.373Z,931.7
2023-01-29T02:16:13.787Z,929.5
2023-01-29T02:17:57.174Z,929
2023-01-29T02:19:40.568Z,930.2
2023-01-29T02:24:49.884Z,938.1
2023-01-29T02:26:33.229Z,939.6
2023-01-29T02:28:16.633Z,936.6
2023-01-29T02:30:00.009Z,934.2
2023-01-29T02:31:43.393Z,935.5
2023-01-29T02:33:26.860Z,937.2
2023-01-29T02:35:10.174Z,937.8
2023-01-29T02:36:53.673Z,937
2023-01-29T02:40:20.069Z,939.5
2023-01-29T02:42:03.527Z,939.4
2023-01-29T02:43:46.848Z,939.7
2023-01-29T02:45:30.239Z,939.1
2023-01-29T02:47:13.679Z,939.4
2023-01-29T02:48:57.064Z,942.4
2023-01-29T02:50:40.420Z,944.7
2023-01-29T02:52:23.809Z,947.2
2023-01-29T02:54:07.528Z,949.3
2023-01-29T02:55:50.934Z,949.5
2023-01-29T02:57:34.335Z,949
2023-01-29T02:59:17.729Z,947.5
2023-01-29T03:01:01.120Z,948.2
2023-01-29T03:02:44.507Z,950.6
2023-01-29T03:04:27.903Z,950.2
2023-01-29T03:06:11.305Z,948.5
2023-01-29T03:09:37.788Z,945.3
2023-01-29T03:11:21.176Z,946.2
2023-01-29T03:13:04.577Z,948.8
2023-01-29T03:14:47.962Z,949.3
2023-01-29T03:16:31.351Z,953.1
2023-01-29T03:18:14.773Z,955.8
2023-01-29T03:19:58.170Z,953.6
2023-01-29T03:21:41.610Z,953.5
2023-01-29T03:23:25.242Z,953.1
2023-01-29T03:25:08.734Z,953.1
2023-01-29T03:26:52.034Z,952.8
2023-01-29T03:28:35.436Z,952.3
2023-01-29T03:30:18.843Z,948.2
2023-01-29T03:32:02.266Z,948.6
2023-01-29T03:33:45.619Z,946.1
2023-01-29T03:35:29.034Z,946.6
2023-01-29T03:38:55.486Z,952.6
2023-01-29T03:40:38.893Z,957.3
2023-01-29T03:42:22.297Z,959.6
2023-01-29T03:44:05.684Z,957.3
2023-01-29T03:45:49.082Z,957.3
2023-01-29T03:47:32.475Z,954.5
2023-01-29T03:49:15.873Z,952.4
2023-01-29T03:50:59.286Z,953.2
2023-01-29T03:56:08.532Z,958
2023-01-29T03:57:51.900Z,959.1
2023-01-29T03:59:35.320Z,958.5
2023-01-29T04:01:18.692Z,958.8
2023-01-29T04:03:02.101Z,957.4
2023-01-29T04:04:45.498Z,955.1
2023-01-29T04:06:28.959Z,958.2
2023-01-29T04:08:12.324Z,958.2
2023-01-29T04:11:38.757Z,957.8
2023-01-29T04:13:22.159Z,956.3
2023-01-29T04:15:05.554Z,953.1
2023-01-29T04:16:48.946Z,952.4
2023-01-29T04:18:32.344Z,953.8
2023-01-29T04:20:15.740Z,951.5
2023-01-29T04:21:59.132Z,949.6
2023-01-29T04:23:42.516Z,948.7
2023-01-29T04:27:09.014Z,947.2
2023-01-29T04:28:52.407Z,948.2
2023-01-29T04:30:35.851Z,948.2
2023-01-29T04:32:19.177Z,950.1
2023-01-29T04:34:02.592Z,953
2023-01-29T04:35:45.988Z,952.6
2023-01-29T04:37:29.377Z,953
2023-01-29T04:39:12.783Z,952.4
2023-01-29T04:42:39.371Z,952.9
2023-01-29T04:44:22.725Z,953
2023-01-29T04:46:06.032Z,955.4
2023-01-29T04:47:49.445Z,956.7
2023-01-29T04:49:32.830Z,958.7
2023-01-29T04:51:16.263Z,957.8
2023-01-29T04:52:59.690Z,957.1
2023-01-29T04:58:08.876Z,959
2023-01-29T04:59:52.264Z,955.6
2023-01-29T05:01:35.654Z,952.8
2023-01-29T05:03:19.052Z,953.5
2023-01-29T05:05:02.504Z,954
2023-01-29T05:06:45.872Z,953.4
2023-01-29T05:08:29.322Z,951.8
2023-01-29T05:10:12.641Z,950.3
2023-01-29T05:11:56.433Z,948.2
2023-01-29T05:13:39.766Z,947.2
2023-01-29T05:15:23.229Z,949.6
2023-01-29T05:17:06.551Z,949.8
2023-01-29T05:18:49.942Z,952.6
2023-01-29T05:20:33.331Z,952.5
2023-01-29T05:22:16.728Z,949.8
2023-01-29T05:24:00.139Z,950
2023-01-29T05:27:26.580Z,949
2023-01-29T05:29:10.002Z,952.4
2023-01-29T05:30:53.418Z,952.5
2023-01-29T05:32:36.778Z,956
2023-01-29T05:34:20.165Z,958.2
2023-01-29T05:36:03.648Z,956.5
2023-01-29T05:37:46.961Z,955.1
2023-01-29T05:39:30.359Z,955.2
2023-01-29T05:42:56.829Z,960.5
2023-01-29T05:44:40.232Z,959.5
2023-01-29T05:46:23.633Z,955.5
2023-01-29T05:48:07.026Z,954
2023-01-29T05:49:50.426Z,951.2
2023-01-29T05:51:33.914Z,952.1
2023-01-29T05:53:17.245Z,950
2023-01-29T05:55:00.620Z,947.1
2023-01-29T05:58:27.081Z,947.7
2023-01-29T06:00:10.467Z,945.3
2023-01-29T06:01:53.875Z,943.5
2023-01-29T06:03:37.309Z,942.6
2023-01-29T06:05:20.664Z,944.6
2023-01-29T06:07:04.069Z,946.4
2023-01-29T06:08:47.490Z,948.4
2023-01-29T06:10:30.862Z,948.5
2023-01-29T06:13:57.332Z,950.4
2023-01-29T06:15:40.794Z,946.4
2023-01-29T06:17:24.111Z,945.8
2023-01-29T06:19:07.512Z,949.1
2023-01-29T06:20:50.908Z,948.2
2023-01-29T06:22:34.298Z,948.7
2023-01-29T06:24:17.707Z,948.4
2023-01-29T06:26:01.105Z,951.1
2023-01-29T06:31:10.360Z,956.3
2023-01-29T06:32:53.732Z,959.8
2023-01-29T06:34:37.129Z,957.6
2023-01-29T06:36:20.538Z,954.3
2023-01-29T06:38:03.990Z,955.1
2023-01-29T06:39:47.331Z,956.4
2023-01-29T06:41:30.747Z,956
2023-01-29T06:43:14.104Z,956.5
2023-01-29T06:46:40.650Z,959.1
2023-01-29T06:48:23.986Z,955.1
2023-01-29T06:50:07.364Z,953.1
2023-01-29T06:51:50.789Z,948
2023-01-29T06:53:34.169Z,949.4
2023-01-29T06:55:17.578Z,950.8
2023-01-29T06:57:00.973Z,952.1
2023-01-29T06:58:44.417Z,957
2023-01-29T07:02:10.836Z,954.2
2023-01-29T07:03:54.227Z,950.8
2023-01-29T07:05:37.619Z,950.4
2023-01-29T07:07:21.016Z,948.8
2023-01-29T07:09:04.427Z,946
2023-01-29T07:10:47.818Z,942.4
2023-01-29T07:12:31.299Z,940.7
2023-01-29T07:14:14.624Z,936.3
2023-01-29T07:19:23.866Z,932.5
2023-01-29T07:21:07.283Z,930.6
2023-01-29T07:22:50.655Z,929.7
2023-01-29T07:24:34.019Z,931.8
2023-01-29T07:26:17.450Z,935.2
2023-01-29T07:28:00.810Z,937.1
2023-01-29T07:29:44.217Z,944.5
2023-01-29T07:31:27.641Z,947.1
2023-01-29T07:34:54.093Z,937.7
2023-01-29T07:36:37.487Z,931.8
2023-01-29T07:38:20.879Z,935.3
2023-01-29T07:40:04.287Z,945.7
2023-01-29T07:41:47.672Z,954.5
2023-01-29T07:43:31.103Z,962.6
2023-01-29T07:45:16.195Z,968.4
2023-01-29T07:46:57.851Z,967.1
2023-01-29T07:50:24.395Z,960
2023-01-29T07:52:07.759Z,959.5
2023-01-29T07:53:51.160Z,960.3
2023-01-29T07:55:34.533Z,960.6
2023-01-29T07:57:18.004Z,956.4
2023-01-29T07:59:01.391Z,948.8
2023-01-29T08:00:44.705Z,946.8
2023-01-29T08:04:11.296Z,926.5
2023-01-29T08:05:54.710Z,918.6
2023-01-29T08:07:37.978Z,912
2023-01-29T08:09:21.439Z,907.7
2023-01-29T08:11:04.913Z,895.2
2023-01-29T08:12:48.148Z,758.5
2023-01-29T08:14:31.652Z,732.4
2023-01-29T08:16:15.249Z,739.1
2023-01-29T08:17:58.808Z,742.3
2023-01-29T08:19:42.196Z,743.2
2023-01-29T08:21:25.615Z,745.7
2023-01-29T08:23:09.115Z,750.3
2023-01-29T08:24:52.246Z,756.1
2023-01-29T08:26:35.805Z,758.4
2023-01-29T08:28:19.215Z,760.6
2023-01-29T08:30:02.636Z,764.5
2023-01-29T08:33:29.056Z,772.5
2023-01-29T08:35:12.517Z,774
2023-01-29T08:36:55.972Z,773.5
2023-01-29T08:38:39.294Z,772.7
2023-01-29T08:40:22.627Z,773.1
2023-01-29T08:42:06.090Z,772.2
2023-01-29T08:43:49.596Z,768
2023-01-29T08:47:15.943Z,763.3
2023-01-29T08:48:59.418Z,759.6
2023-01-29T08:50:42.782Z,753.6
2023-01-29T08:52:26.278Z,751.5
2023-01-29T08:54:09.574Z,750.1
2023-01-29T08:55:52.973Z,748.2
2023-01-29T08:57:36.416Z,745.7
2023-01-29T08:59:19.735Z,745.6
2023-01-29T09:01:03.284Z,746
2023-01-29T09:02:46.767Z,746.3
2023-01-29T09:04:30.297Z,749.5
2023-01-29T09:06:13.789Z,750
2023-01-29T09:07:56.857Z,751
2023-01-29T09:09:40.339Z,749.1
2023-01-29T09:11:23.745Z,747.4
2023-01-29T09:16:32.970Z,754.1
2023-01-29T09:18:16.325Z,761.3
2023-01-29T09:19:59.708Z,763.2
2023-01-29T09:21:43.180Z,762.8
2023-01-29T09:23:26.478Z,762.7
2023-01-29T09:25:09.896Z,762
2023-01-29T09:26:53.287Z,758.7
2023-01-29T09:30:19.808Z,758.9
2023-01-29T09:32:03.077Z,762.6
2023-01-29T09:33:46.673Z,762
2023-01-29T09:35:29.876Z,761.4
2023-01-29T09:37:13.387Z,763.1
2023-01-29T09:38:56.671Z,761.8
2023-01-29T09:40:40.236Z,763.4
2023-01-29T09:42:23.653Z,765.3
2023-01-29T09:44:07.318Z,763.6
2023-01-29T09:45:50.829Z,765.7
2023-01-29T09:47:34.209Z,768.5
2023-01-29T09:49:17.556Z,768.3
2023-01-29T09:51:00.930Z,765.4
2023-01-29T09:52:44.358Z,763.7
2023-01-29T09:54:27.713Z,765.3
2023-01-29T09:56:11.124Z,763.6
2023-01-29T09:57:54.680Z,762.6
2023-01-29T09:59:38.237Z,762.8
2023-01-29T10:01:21.648Z,765.4
2023-01-29T10:03:05.002Z,768.1
2023-01-29T10:04:48.378Z,767.3
2023-01-29T10:06:31.750Z,767.1
2023-01-29T10:08:15.208Z,767.1
2023-01-29T10:09:58.575Z,767.6
2023-01-29T10:13:25.089Z,764
2023-01-29T10:15:08.432Z,761.4
2023-01-29T10:16:51.795Z,758.5
2023-01-29T10:18:35.098Z,755.6
2023-01-29T10:20:18.463Z,751.5
2023-01-29T10:22:01.928Z,754
2023-01-29T10:23:45.268Z,754.6
2023-01-29T10:25:28.888Z,753.6
2023-01-29T10:28:55.271Z,755.5
2023-01-29T10:30:38.717Z,755.6
2023-01-29T10:32:21.924Z,752.2
2023-01-29T10:34:05.423Z,753.4
2023-01-29T10:35:48.839Z,753.4
2023-01-29T10:37:32.290Z,754.8
2023-01-29T10:39:15.642Z,754.2
2023-01-29T10:40:59.103Z,754.8
2023-01-29T10:44:25.501Z,749.1
2023-01-29T10:46:08.790Z,747.5
2023-01-29T10:47:52.193Z,746.7
2023-01-29T10:49:35.587Z,744.3
2023-01-29T10:51:18.963Z,746.3
2023-01-29T10:53:02.495Z,747.1
2023-01-29T10:54:45.825Z,747.3
2023-01-29T10:56:29.154Z,746.7
2023-01-29T10:59:55.627Z,789.1
2023-01-29T11:01:39.117Z,1035.4
2023-01-29T11:03:22.593Z,1169.1
2023-01-29T11:05:05.964Z,1261.3
2023-01-29T11:06:49.364Z,1331
2023-01-29T11:08:32.763Z,1413.2
2023-01-29T11:10:15.985Z,1437.6
2023-01-29T11:11:59.553Z,1437.6
2023-01-29T11:13:43.262Z,1431.9
2023-01-29T11:15:26.696Z,1433.8
2023-01-29T11:17:10.103Z,1435.2
2023-01-29T11:18:53.437Z,1432.7
2023-01-29T11:20:36.881Z,1429.2
2023-01-29T11:22:20.286Z,1422.2
2023-01-29T11:24:03.662Z,1415.8
2023-01-29T11:25:47.065Z,1412.4
2023-01-29T11:29:13.459Z,1410
2023-01-29T11:30:56.920Z,1407.3
2023-01-29T11:32:40.276Z,1406
2023-01-29T11:34:23.756Z,1404.5
2023-01-29T11:36:07.015Z,1404.5
2023-01-29T11:37:50.567Z,1400.7
2023-01-29T11:39:33.896Z,1400
2023-01-29T11:41:17.276Z,1400.6
2023-01-29T11:44:43.836Z,1400.4
2023-01-29T11:46:27.169Z,1398.4
2023-01-29T11:48:10.529Z,1397.1
2023-01-29T11:49:53.947Z,1396.7
2023-01-29T11:51:37.360Z,1399.7
2023-01-29T11:53:20.769Z,1397.4
2023-01-29T11:55:04.239Z,1397
2023-01-29T11:56:47.562Z,1396.4
2023-01-29T11:58:31.101Z,1397.2
2023-01-29T12:00:14.515Z,1398.5
2023-01-29T12:01:58.055Z,1400.6
2023-01-29T12:03:41.415Z,1402.6
2023-01-29T12:05:24.811Z,1405
2023-01-29T12:07:08.057Z,1405.6
2023-01-29T12:08:51.463Z,1407.4
2023-01-29T12:10:35.003Z,1408.4
2023-01-29T12:14:01.471Z,1412.2
2023-01-29T12:15:44.894Z,1415.5
2023-01-29T12:17:28.249Z,1414.7
2023-01-29T12:19:11.519Z,1410.7
2023-01-29T12:20:55.084Z,1405.5
2023-01-29T12:22:38.354Z,1403.1
2023-01-29T12:24:21.703Z,1402
2023-01-29T12:26:05.088Z,1407.7
2023-01-29T12:29:31.592Z,1418.3
2023-01-29T12:31:15.031Z,1423.6
2023-01-29T12:32:58.369Z,1423.5
2023-01-29T12:34:41.771Z,1423.3
2023-01-29T12:36:25.231Z,1427.1
2023-01-29T12:38:08.596Z,1431.2
2023-01-29T12:39:52.058Z,1437.4
2023-01-29T12:41:35.341Z,1442
2023-01-29T12:45:01.835Z,1454.9
2023-01-29T12:46:45.191Z,1479.1
2023-01-29T12:48:28.623Z,1506.5
2023-01-29T12:50:12.123Z,1515.2
2023-01-29T12:51:55.438Z,1511.5
2023-01-29T12:53:38.782Z,1511.8
2023-01-29T12:55:22.189Z,1512.2
2023-01-29T12:57:05.569Z,1513.2
2023-01-29T13:00:32.191Z,1503.2
2023-01-29T13:02:15.451Z,1494.8
2023-01-29T13:03:58.849Z,1493.7
2023-01-29T13:05:42.254Z,1495
2023-01-29T13:07:25.696Z,1498.1
2023-01-29T13:09:09.021Z,1497.8
2023-01-29T13:10:52.561Z,1498.2
2023-01-29T13:12:35.826Z,1499.8
2023-01-29T13:14:19.556Z,1501.1
2023-01-29T13:16:02.948Z,1499.1
2023-01-29T13:17:46.310Z,1500.7
2023-01-29T13:19:29.725Z,1503.8
2023-01-29T13:21:13.233Z,1509.4
2023-01-29T13:22:56.506Z,1517.1
2023-01-29T13:24:39.902Z,1520.3
2023-01-29T13:26:23.374Z,1523.1
2023-01-29T13:29:49.979Z,1513.4
2023-01-29T13:31:33.184Z,1518.3
2023-01-29T13:33:16.585Z,1520.3
2023-01-29T13:35:00.139Z,1525.8
2023-01-29T13:36:43.581Z,1531.1
2023-01-29T13:38:26.934Z,1540.8
2023-01-29T13:40:10.350Z,1548.4
2023-01-29T13:41:53.735Z,1552.7
2023-01-29T13:43:37.281Z,1561.3
2023-01-29T13:45:20.932Z,1560.3
2023-01-29T13:47:04.202Z,1559.4
2023-01-29T13:48:47.540Z,1559.5
2023-01-29T13:50:30.962Z,1560.8
2023-01-29T13:52:14.368Z,1563.4
2023-01-29T13:53:57.617Z,1569.8
2023-01-29T13:55:41.143Z,1579.6
2023-01-29T13:57:24.742Z,1585
2023-01-29T13:59:08.318Z,1594.7
2023-01-29T14:00:51.550Z,1597.1
2023-01-29T14:02:35.057Z,1565.3
2023-01-29T14:04:18.495Z,1199.3
2023-01-29T14:06:01.701Z,978
2023-01-29T14:07:45.131Z,826.4
2023-01-29T14:09:28.521Z,711.8
2023-01-29T14:12:55.143Z,670.4
2023-01-29T14:14:38.452Z,673.2
2023-01-29T14:16:21.902Z,678.2
2023-01-29T14:18:05.327Z,680.5
2023-01-29T14:19:48.648Z,682.8
2023-01-29T14:21:32.214Z,689
2023-01-29T14:23:15.465Z,690.5
2023-01-29T14:24:58.971Z,692.6
2023-01-29T14:28:25.424Z,702.7
2023-01-29T14:30:08.775Z,709.3
2023-01-29T14:31:52.191Z,716.8
2023-01-29T14:33:35.652Z,724.2
2023-01-29T14:35:18.862Z,727.4
2023-01-29T14:37:02.334Z,733.8
2023-01-29T14:38:45.769Z,738.7
2023-01-29T14:40:29.162Z,742.8
2023-01-29T14:43:55.615Z,749.6
2023-01-29T14:45:39.068Z,753.8
2023-01-29T14:47:22.388Z,757.2
2023-01-29T14:49:05.799Z,760.5
2023-01-29T14:50:49.216Z,761.6
2023-01-29T14:52:32.699Z,762
2023-01-29T14:54:16.023Z,761
2023-01-29T14:55:59.413Z,764
2023-01-29T14:59:25.884Z,769.7
2023-01-29T15:01:09.287Z,772.4
2023-01-29T15:02:52.508Z,775
2023-01-29T15:04:36.093Z,777
2023-01-29T15:06:19.295Z,780
2023-01-29T15:08:02.863Z,781.2
2023-01-29T15:09:46.306Z,781.1
2023-01-29T15:11:29.644Z,779.3
2023-01-29T15:14:56.126Z,779.3
2023-01-29T15:16:39.645Z,781.1
2023-01-29T15:18:22.951Z,784.2
2023-01-29T15:20:06.194Z,783.7
2023-01-29T15:21:49.816Z,782.6
2023-01-29T15:23:33.197Z,780.3
2023-01-29T15:25:16.356Z,780.3
2023-01-29T15:26:59.910Z,777.4
2023-01-29T15:30:26.350Z,776.5
2023-01-29T15:32:09.718Z,775
2023-01-29T15:33:53.138Z,771.4
2023-01-29T15:35:36.583Z,771.5
2023-01-29T15:37:19.955Z,772
2023-01-29T15:39:03.349Z,769.1
2023-01-29T15:40:46.757Z,771.2
2023-01-29T15:42:30.153Z,771
2023-01-29T15:44:13.851Z,770.9
2023-01-29T15:45:57.075Z,792
2023-01-29T15:47:40.489Z,814.6
2023-01-29T15:49:24.144Z,819.8
2023-01-29T15:51:07.390Z,819.6
2023-01-29T15:52:50.694Z,822.2
2023-01-29T15:54:34.111Z,822.1
2023-01-29T15:56:17.528Z,824
2023-01-29T15:59:43.927Z,822.4
2023-01-29T16:01:27.304Z,820.7
2023-01-29T16:03:10.714Z,823.4
2023-01-29T16:04:54.223Z,824.7
2023-01-29T16:06:37.603Z,828.2
2023-01-29T16:08:21.070Z,832.2
2023-01-29T16:10:04.402Z,831.2
2023-01-29T16:11:47.798Z,832.7
2023-01-29T16:16:56.947Z,837.6
2023-01-29T16:18:40.494Z,841
2023-01-29T16:20:23.892Z,842.6
2023-01-29T16:22:07.293Z,849.6
2023-01-29T16:23:50.656Z,854.3
2023-01-29T16:25:34.102Z,850
2023-01-29T16:27:17.298Z,847.7
2023-01-29T16:29:00.899Z,850.2
2023-01-29T16:30:44.642Z,849.7
2023-01-29T16:32:27.984Z,855.2
2023-01-29T16:34:11.418Z,863.5
2023-01-29T16:35:54.866Z,874
2023-01-29T16:37:38.129Z,869.6
2023-01-29T16:39:21.621Z,871.3
2023-01-29T16:41:04.784Z,874.5
2023-01-29T16:42:48.277Z,878.4
2023-01-29T16:46:14.689Z,877.7
2023-01-29T16:47:58.177Z,874.7
2023-01-29T16:49:41.521Z,876.3
2023-01-29T16:51:24.870Z,878
2023-01-29T16:53:08.262Z,881.5
2023-01-29T16:54:51.692Z,882.8
2023-01-29T16:56:35.020Z,883.5
2023-01-29T16:58:18.471Z,885.5
2023-01-29T17:01:44.945Z,890.8
2023-01-29T17:03:28.447Z,893.7
2023-01-29T17:05:11.713Z,897.3
2023-01-29T17:06:55.099Z,899.1
2023-01-29T17:08:38.483Z,902.6
2023-01-29T17:10:21.904Z,911.3
2023-01-29T17:12:05.275Z,916.2
2023-01-29T17:13:48.693Z,922
2023-01-29T17:17:15.154Z,933.2
2023-01-29T17:18:58.670Z,939
2023-01-29T17:20:42.060Z,946.8
2023-01-29T17:22:25.478Z,957
2023-01-29T17:24:08.944Z,962.4
2023-01-29T17:25:52.132Z,965.6
2023-01-29T17:27:35.529Z,969
2023-01-29T17:29:18.975Z,973
2023-01-29T17:32:45.401Z,975.1
2023-01-29T17:34:28.952Z,977.7
2023-01-29T17:36:12.365Z,976.4
2023-01-29T17:37:55.742Z,976
2023-01-29T17:39:39.069Z,978.5
2023-01-29T17:41:22.459Z,980.4
2023-01-29T17:43:05.765Z,978.1
2023-01-29T17:44:49.157Z,977.6
2023-01-29T17:48:15.637Z,978.1
2023-01-29T17:49:59.038Z,978.6
2023-01-29T17:51:42.493Z,976
2023-01-29T17:53:25.829Z,976
2023-01-29T17:55:09.230Z,975.6
2023-01-29T17:56:52.617Z,974.1
2023-01-29T17:58:36.040Z,974.4
2023-01-29T18:00:19.394Z,975.4
2023-01-29T18:03:45.958Z,979.9
2023-01-29T18:05:29.483Z,980.5
2023-01-29T18:07:12.890Z,980.3
2023-01-29T18:08:56.207Z,980.4
2023-01-29T18:10:39.671Z,979.5
2023-01-29T18:12:22.952Z,979.8
2023-01-29T18:14:06.381Z,976.1
2023-01-29T18:15:49.816Z,976
2023-01-29T18:19:16.377Z,972.3
2023-01-29T18:20:59.757Z,970.6
2023-01-29T18:22:43.093Z,972
2023-01-29T18:24:26.551Z,973.6
2023-01-29T18:26:09.700Z,972.5
2023-01-29T18:27:53.299Z,974.5
2023-01-29T18:29:36.684Z,976.8
2023-01-29T18:31:20.128Z,977
2023-01-29T18:34:46.498Z,975.1
2023-01-29T18:36:29.927Z,976.6
2023-01-29T18:38:13.376Z,976.7
2023-01-29T18:39:56.703Z,976.6
2023-01-29T18:41:40.131Z,979.7
2023-01-29T18:43:23.535Z,983.1
2023-01-29T18:45:06.845Z,983.2
2023-01-29T18:46:50.301Z,984
2023-01-29T18:50:16.695Z,983.7
2023-01-29T18:52:00.051Z,982.3
2023-01-29T18:53:43.412Z,981.5
2023-01-29T18:55:26.919Z,982.2
2023-01-29T18:57:10.202Z,983
2023-01-29T18:58:53.595Z,984.8
2023-01-29T19:00:37.122Z,984
2023-01-29T19:02:20.456Z,984.7
2023-01-29T19:04:03.869Z,986.4
2023-01-29T19:05:47.491Z,988.3
2023-01-29T19:07:30.987Z,991.7
2023-01-29T19:09:14.268Z,996.3
2023-01-29T19:10:57.696Z,1001.3
2023-01-29T19:12:41.083Z,1006.7
2023-01-29T19:14:24.480Z,1010.5
2023-01-29T19:16:07.887Z,1011.8
2023-01-29T19:17:51.384Z,1013.3
2023-01-29T19:23:00.495Z,1026.1
2023-01-29T19:24:43.954Z,1028.2
2023-01-29T19:26:27.400Z,1027.7
2023-01-29T19:28:10.793Z,1028
2023-01-29T19:29:54.087Z,1027.2
2023-01-29T19:31:37.599Z,1023
2023-01-29T19:33:21.061Z,1020.2
2023-01-29T19:35:04.290Z,1019.5
2023-01-29T19:38:30.766Z,1013.7
2023-01-29T19:40:14.306Z,1009.2
2023-01-29T19:41:57.625Z,1007.7
2023-01-29T19:43:41.018Z,1004.4
2023-01-29T19:45:24.487Z,998.6
2023-01-29T19:47:07.856Z,994.6
2023-01-29T19:48:51.211Z,994
2023-01-29T19:50:34.545Z,993.6
2023-01-29T19:55:43.876Z,979.6
2023-01-29T19:57:27.234Z,978.4
2023-01-29T19:59:10.746Z,977.5
2023-01-29T20:00:54.020Z,977.4
2023-01-29T20:02:37.415Z,974.2
2023-01-29T20:04:20.816Z,971.3
2023-01-29T20:06:04.356Z,969.8
2023-01-29T20:07:47.728Z,968.8
2023-01-29T20:11:14.151Z,964.6
2023-01-29T20:12:57.559Z,961.5
2023-01-29T20:14:40.817Z,964.2
2023-01-29T20:16:24.350Z,961.7
2023-01-29T20:18:07.606Z,957.1
2023-01-29T20:19:51.096Z,953.4
2023-01-29T20:21:34.488Z,951.7
2023-01-29T20:23:17.812Z,953.2
2023-01-29T20:28:27.030Z,954.7
2023-01-29T20:30:10.521Z,953.7
2023-01-29T20:31:53.883Z,953.7
2023-01-29T20:33:37.285Z,952.8
2023-01-29T20:35:20.614Z,951.7
2023-01-29T20:37:03.992Z,950.6
2023-01-29T20:38:47.464Z,948.2
2023-01-29T20:40:30.885Z,947.7
2023-01-29T20:45:40.026Z,945.4
2023-01-29T20:47:23.421Z,944.4
2023-01-29T20:49:06.884Z,943.5
2023-01-29T20:50:50.240Z,940.7
2023-01-29T20:52:33.607Z,941.1
2023-01-29T20:54:17.099Z,938.5
2023-01-29T20:56:00.467Z,934.4
2023-01-29T20:57:43.959Z,931.5
2023-01-29T21:01:10.454Z,927.4
2023-01-29T21:02:53.764Z,925.6
2023-01-29T21:04:37.146Z,926
2023-01-29T21:06:20.609Z,927.2
2023-01-29T21:08:03.992Z,924.6
2023-01-29T21:09:47.378Z,925.3
2023-01-29T21:11:30.707Z,928.8
2023-01-29T21:13:14.173Z,927.4
2023-01-29T21:18:23.411Z,924
2023-01-29T21:20:06.711Z,924.1
2023-01-29T21:21:50.121Z,923.2
2023-01-29T21:23:33.498Z,921
2023-01-29T21:25:17.045Z,921.5
2023-01-29T21:27:00.323Z,924
2023-01-29T21:28:43.813Z,925.3
2023-01-29T21:30:27.206Z,926.7
2023-01-29T21:33:53.565Z,930.6
2023-01-29T21:35:36.955Z,930.4
2023-01-29T21:37:20.339Z,930.6
2023-01-29T21:39:03.863Z,932.1
2023-01-29T21:40:47.145Z,931.5
2023-01-29T21:42:30.544Z,933.4
2023-01-29T21:44:13.920Z,932.8
2023-01-29T21:45:57.325Z,930.7
2023-01-29T21:51:06.677Z,926.2
2023-01-29T21:52:49.934Z,925.4
2023-01-29T21:54:33.349Z,922.8
2023-01-29T21:56:16.758Z,921.6
2023-01-29T21:58:00.172Z,917.7
2023-01-29T21:59:43.544Z,916.4
2023-01-29T22:01:26.923Z,919.8
2023-01-29T22:06:36.168Z,917.4
2023-01-29T22:08:19.731Z,920.3
2023-01-29T22:10:02.974Z,919.4
2023-01-29T22:11:46.365Z,917.3
2023-01-29T22:13:29.823Z,913.3
2023-01-29T22:15:13.212Z,910.3
2023-01-29T22:16:56.598Z,911
2023-01-29T22:18:40.084Z,910.2
2023-01-29T22:22:06.514Z,912.7
2023-01-29T22:23:49.996Z,909.7
2023-01-29T22:25:33.356Z,910.7
2023-01-29T22:27:16.659Z,914.5
2023-01-29T22:29:00.100Z,915.6
2023-01-29T22:30:43.463Z,914.8
2023-01-29T22:32:26.885Z,912.6
2023-01-29T22:34:10.197Z,913.7
2023-01-29T22:37:36.695Z,905.3
2023-01-29T22:39:20.095Z,907.7
2023-01-29T22:41:03.738Z,911
2023-01-29T22:42:46.964Z,911.5
2023-01-29T22:44:30.264Z,913.8
2023-01-29T22:46:13.740Z,915.6
2023-01-29T22:47:57.087Z,915.5
2023-01-29T22:49:40.495Z,916
2023-01-29T22:53:06.923Z,916.7
2023-01-29T22:54:50.312Z,915.8
2023-01-29T22:56:33.706Z,913.1
2023-01-29T22:58:17.136Z,910.4
2023-01-29T23:00:00.509Z,912.8
2023-01-29T23:01:43.919Z,915.2
2023-01-29T23:03:27.325Z,912.8
2023-01-29T23:05:10.726Z,909.5
2023-01-29T23:06:54.082Z,913
2023-01-29T23:08:37.795Z,913.7
2023-01-29T23:10:21.199Z,913.5
2023-01-29T23:12:04.562Z,915.3
2023-01-29T23:13:47.985Z,917.8
2023-01-29T23:15:31.406Z,920.3
2023-01-29T23:17:14.770Z,919.6
2023-01-29T23:18:58.214Z,919.3
2023-01-29T23:20:41.549Z,920
2023-01-29T23:25:50.787Z,922.4
2023-01-29T23:27:34.233Z,919.1
2023-01-29T23:29:17.589Z,916.7
2023-01-29T23:31:01.005Z,911.3
2023-01-29T23:32:44.484Z,905.7
2023-01-29T23:34:27.796Z,908.5
2023-01-29T23:36:11.205Z,908.7
2023-01-29T23:37:54.569Z,908
2023-01-29T23:41:21.087Z,905.9
2023-01-29T23:43:04.483Z,907.5
2023-01-29T23:44:47.868Z,907.6
2023-01-29T23:46:31.337Z,910.1
2023-01-29T23:48:14.611Z,911.3
2023-01-29T23:49:58.020Z,911.2
2023-01-29T23:51:41.429Z,911.6
2023-01-29T23:53:24.824Z,909.4
2023-01-29T23:58:34.040Z,909.2
